sensor_id;sensor_type;location;lat;lon;timestamp;pressure;altitude;pressure_sealevel;temperature;humidity
61337;BME280;47212;41.326;2.104;2022-09-12T00:03:31;101277.75;;;26.02;72.68
61337;BME280;47212;41.326;2.104;2022-09-12T00:08:37;101278.91;;;26.01;73.16
61337;BME280;47212;41.326;2.104;2022-09-12T00:13:49;101284.00;;;25.99;72.90
61337;BME280;47212;41.326;2.104;2022-09-12T00:18:54;101278.31;;;25.95;72.96
61337;BME280;47212;41.326;2.104;2022-09-12T00:24:07;101270.91;;;25.87;73.08
61337;BME280;47212;41.326;2.104;2022-09-12T00:29:24;101276.03;;;25.85;73.42
61337;BME280;47212;41.326;2.104;2022-09-12T00:34:30;101261.16;;;25.81;73.03
61337;BME280;47212;41.326;2.104;2022-09-12T00:39:38;101257.94;;;25.79;73.44
61337;BME280;47212;41.326;2.104;2022-09-12T00:44:48;101238.75;;;25.78;73.25
61337;BME280;47212;41.326;2.104;2022-09-12T00:50:16;101243.53;;;25.77;74.15
61337;BME280;47212;41.326;2.104;2022-09-12T00:55:26;101227.97;;;25.76;73.80
61337;BME280;47212;41.326;2.104;2022-09-12T01:05:11;101204.84;;;25.76;73.86
61337;BME280;47212;41.326;2.104;2022-09-12T01:10:15;101202.84;;;25.76;73.64
61337;BME280;47212;41.326;2.104;2022-09-12T01:15:26;101188.47;;;25.74;73.96
61337;BME280;47212;41.326;2.104;2022-09-12T01:26:38;101194.84;;;25.75;74.06
61337;BME280;47212;41.326;2.104;2022-09-12T01:48:50;101194.09;;;25.50;74.51
61337;BME280;47212;41.326;2.104;2022-09-12T01:54:20;101201.19;;;25.47;74.86
61337;BME280;47212;41.326;2.104;2022-09-12T01:59:42;101195.50;;;25.44;74.67
61337;BME280;47212;41.326;2.104;2022-09-12T02:11:06;101179.47;;;25.40;75.38
61337;BME280;47212;41.326;2.104;2022-09-12T02:22:03;101168.22;;;25.37;75.05
61337;BME280;47212;41.326;2.104;2022-09-12T02:27:20;101169.03;;;25.37;75.30
61337;BME280;47212;41.326;2.104;2022-09-12T02:33:08;101170.19;;;25.36;76.36
61337;BME280;47212;41.326;2.104;2022-09-12T02:38:40;101162.31;;;25.38;75.71
61337;BME280;47212;41.326;2.104;2022-09-12T02:44:00;101155.56;;;25.39;75.07
61337;BME280;47212;41.326;2.104;2022-09-12T02:49:14;101151.63;;;25.40;75.42
61337;BME280;47212;41.326;2.104;2022-09-12T02:54:25;101166.00;;;25.43;75.23
61337;BME280;47212;41.326;2.104;2022-09-12T03:19:24;101166.59;;;25.36;75.60
61337;BME280;47212;41.326;2.104;2022-09-12T03:29:23;101176.72;;;25.28;75.25
61337;BME280;47212;41.326;2.104;2022-09-12T03:34:27;101167.91;;;25.26;75.51
61337;BME280;47212;41.326;2.104;2022-09-12T03:39:29;101168.72;;;25.27;75.46
61337;BME280;47212;41.326;2.104;2022-09-12T03:44:37;101159.91;;;25.25;75.73
61337;BME280;47212;41.326;2.104;2022-09-12T03:49:40;101155.13;;;25.25;75.43
61337;BME280;47212;41.326;2.104;2022-09-12T03:54:47;101159.91;;;25.25;75.74
61337;BME280;47212;41.326;2.104;2022-09-12T03:59:49;101145.50;;;25.23;75.57
61337;BME280;47212;41.326;2.104;2022-09-12T04:04:51;101143.41;;;25.20;75.84
61337;BME280;47212;41.326;2.104;2022-09-12T04:09:54;101156.53;;;25.19;75.88
61337;BME280;47212;41.326;2.104;2022-09-12T04:15:00;101156.09;;;25.17;76.20
61337;BME280;47212;41.326;2.104;2022-09-12T04:20:24;101171.16;;;25.16;76.62
61337;BME280;47212;41.326;2.104;2022-09-12T04:27:22;101160.38;;;25.15;76.09
61337;BME280;47212;41.326;2.104;2022-09-12T04:34:19;101158.25;;;25.12;76.43
61337;BME280;47212;41.326;2.104;2022-09-12T04:39:21;101151.06;;;25.11;76.50
61337;BME280;47212;41.326;2.104;2022-09-12T04:44:32;101138.66;;;25.08;76.82
61337;BME280;47212;41.326;2.104;2022-09-12T04:49:36;101147.38;;;25.06;76.55
61337;BME280;47212;41.326;2.104;2022-09-12T04:54:38;101152.94;;;25.06;76.61
61337;BME280;47212;41.326;2.104;2022-09-12T04:59:40;101157.69;;;25.06;76.64
61337;BME280;47212;41.326;2.104;2022-09-12T05:04:44;101161.63;;;25.05;76.78
61337;BME280;47212;41.326;2.104;2022-09-12T05:09:47;101157.22;;;25.04;76.86
61337;BME280;47212;41.326;2.104;2022-09-12T05:14:49;101152.34;;;25.01;76.87
61337;BME280;47212;41.326;2.104;2022-09-12T05:19:51;101156.97;;;24.97;76.44
61337;BME280;47212;41.326;2.104;2022-09-12T05:24:54;101159.31;;;24.95;76.74
61337;BME280;47212;41.326;2.104;2022-09-12T05:30:01;101152.09;;;24.94;76.77
61337;BME280;47212;41.326;2.104;2022-09-12T05:35:07;101169.97;;;24.93;76.80
61337;BME280;47212;41.326;2.104;2022-09-12T05:40:10;101153.97;;;24.90;76.60
61337;BME280;47212;41.326;2.104;2022-09-12T05:45:14;101147.94;;;24.88;76.68
61337;BME280;47212;41.326;2.104;2022-09-12T05:50:17;101149.09;;;24.87;76.29
61337;BME280;47212;41.326;2.104;2022-09-12T05:55:20;101151.88;;;24.87;76.09
61337;BME280;47212;41.326;2.104;2022-09-12T06:00:22;101153.97;;;24.90;76.05
61337;BME280;47212;41.326;2.104;2022-09-12T06:05:28;101159.31;;;24.95;76.33
61337;BME280;47212;41.326;2.104;2022-09-12T06:10:30;101161.41;;;24.98;75.73
61337;BME280;47212;41.326;2.104;2022-09-12T06:15:39;101154.44;;;25.04;75.95
61337;BME280;47212;41.326;2.104;2022-09-12T06:20:42;101164.44;;;25.05;75.57
61337;BME280;47212;41.326;2.104;2022-09-12T06:25:47;101148.19;;;25.07;75.34
61337;BME280;47212;41.326;2.104;2022-09-12T06:30:51;101157.09;;;25.13;75.28
61337;BME280;47212;41.326;2.104;2022-09-12T06:35:53;101141.81;;;25.19;74.91
61337;BME280;47212;41.326;2.104;2022-09-12T06:40:55;101165.00;;;25.23;75.25
61337;BME280;47212;41.326;2.104;2022-09-12T06:45:59;101144.00;;;25.25;74.97
61337;BME280;47212;41.326;2.104;2022-09-12T06:51:12;101173.22;;;25.31;74.79
61337;BME280;47212;41.326;2.104;2022-09-12T06:56:18;101168.22;;;25.37;74.76
61337;BME280;47212;41.326;2.104;2022-09-12T07:01:22;101172.28;;;25.39;74.85
61337;BME280;47212;41.326;2.104;2022-09-12T07:06:27;101179.13;;;25.42;74.38
61337;BME280;47212;41.326;2.104;2022-09-12T07:11:34;101181.09;;;25.42;74.38
61337;BME280;47212;41.326;2.104;2022-09-12T07:16:37;101175.63;;;25.45;74.42
61337;BME280;47212;41.326;2.104;2022-09-12T07:21:39;101176.91;;;25.48;74.57
61337;BME280;47212;41.326;2.104;2022-09-12T07:26:42;101180.09;;;25.62;73.96
61337;BME280;47212;41.326;2.104;2022-09-12T07:31:44;101191.72;;;25.76;73.83
61337;BME280;47212;41.326;2.104;2022-09-12T07:36:50;101211.19;;;25.88;72.97
61337;BME280;47212;41.326;2.104;2022-09-12T07:41:57;101203.72;;;25.92;72.59
61337;BME280;47212;41.326;2.104;2022-09-12T07:47:02;101220.56;;;25.96;72.36
61337;BME280;47212;41.326;2.104;2022-09-12T07:52:07;101222.28;;;26.00;72.37
61337;BME280;47212;41.326;2.104;2022-09-12T07:57:12;101220.19;;;26.10;72.06
61337;BME280;47212;41.326;2.104;2022-09-12T08:02:17;101219.22;;;26.18;72.14
61337;BME280;47212;41.326;2.104;2022-09-12T08:07:23;101227.41;;;26.54;71.30
61337;BME280;47212;41.326;2.104;2022-09-12T08:12:27;101226.88;;;26.96;70.37
61337;BME280;47212;41.326;2.104;2022-09-12T08:17:31;101225.22;;;27.42;69.60
61337;BME280;47212;41.326;2.104;2022-09-12T08:22:35;101232.88;;;27.80;68.48
61337;BME280;47212;41.326;2.104;2022-09-12T08:27:50;101224.84;;;28.17;68.45
61337;BME280;47212;41.326;2.104;2022-09-12T08:32:55;101225.47;;;28.49;67.97
61337;BME280;47212;41.326;2.104;2022-09-12T08:37:57;101221.81;;;28.68;68.47
61337;BME280;47212;41.326;2.104;2022-09-12T08:43:15;101217.47;;;28.71;68.77
61337;BME280;47212;41.326;2.104;2022-09-12T08:48:23;101223.84;;;28.48;69.85
61337;BME280;47212;41.326;2.104;2022-09-12T08:53:26;101224.53;;;28.22;70.59
61337;BME280;47212;41.326;2.104;2022-09-12T08:58:36;101235.09;;;28.10;71.13
61337;BME280;47212;41.326;2.104;2022-09-12T09:14:48;101229.84;;;28.08;72.42
61337;BME280;47212;41.326;2.104;2022-09-12T09:25:51;101231.72;;;28.62;71.80
61337;BME280;47212;41.326;2.104;2022-09-12T09:30:58;101225.88;;;28.71;71.96
61337;BME280;47212;41.326;2.104;2022-09-12T09:36:20;101228.00;;;29.00;70.27
61337;BME280;47212;41.326;2.104;2022-09-12T09:46:53;101220.09;;;29.36;69.07
61337;BME280;47212;41.326;2.104;2022-09-12T09:51:57;101223.59;;;29.52;69.00
61337;BME280;47212;41.326;2.104;2022-09-12T09:57:01;101217.81;;;29.68;68.20
61337;BME280;47212;41.326;2.104;2022-09-12T10:07:19;101210.03;;;29.88;66.22
61337;BME280;47212;41.326;2.104;2022-09-12T10:12:27;101200.69;;;30.10;65.89
61337;BME280;47212;41.326;2.104;2022-09-12T10:17:42;101200.09;;;30.31;64.78
61337;BME280;47212;41.326;2.104;2022-09-12T10:22:50;101196.91;;;30.32;65.32
61337;BME280;47212;41.326;2.104;2022-09-12T10:28:02;101198.63;;;30.40;64.53
61337;BME280;47212;41.326;2.104;2022-09-12T10:33:12;101213.69;;;30.59;64.45
61337;BME280;47212;41.326;2.104;2022-09-12T10:38:23;101194.06;;;30.66;64.37
61337;BME280;47212;41.326;2.104;2022-09-12T10:48:50;101195.28;;;30.65;64.54
61337;BME280;47212;41.326;2.104;2022-09-12T10:54:11;101204.13;;;30.67;62.95
61337;BME280;47212;41.326;2.104;2022-09-12T10:59:32;101205.72;;;30.68;62.75
61337;BME280;47212;41.326;2.104;2022-09-12T11:53:35;101147.59;;;30.79;61.58
61337;BME280;47212;41.326;2.104;2022-09-12T11:58:41;101147.69;;;30.93;62.26
61337;BME280;47212;41.326;2.104;2022-09-12T12:03:46;101136.53;;;31.04;62.41
61337;BME280;47212;41.326;2.104;2022-09-12T12:08:49;101128.91;;;31.08;62.25
61337;BME280;47212;41.326;2.104;2022-09-12T12:13:57;101131.75;;;31.12;62.21
61337;BME280;47212;41.326;2.104;2022-09-12T12:19:07;101132.94;;;31.07;62.27
61337;BME280;47212;41.326;2.104;2022-09-12T12:34:27;101118.06;;;31.06;61.89
61337;BME280;47212;41.326;2.104;2022-09-12T12:44:52;101109.81;;;30.69;63.87
61337;BME280;47212;41.326;2.104;2022-09-12T12:50:01;101117.69;;;30.53;64.50
61337;BME280;47212;41.326;2.104;2022-09-12T12:55:13;101111.56;;;30.40;64.36
61337;BME280;47212;41.326;2.104;2022-09-12T13:05:23;101111.63;;;30.07;66.48
61337;BME280;47212;41.326;2.104;2022-09-12T13:10:28;101099.09;;;30.01;66.57
61337;BME280;47212;41.326;2.104;2022-09-12T13:20:47;101102.59;;;29.87;67.22
61337;BME280;47212;41.326;2.104;2022-09-12T13:25:54;101085.91;;;29.64;68.08
61337;BME280;47212;41.326;2.104;2022-09-12T13:31:24;101085.31;;;29.48;70.43
61337;BME280;47212;41.326;2.104;2022-09-12T13:47:21;101080.69;;;29.63;69.93
61337;BME280;47212;41.326;2.104;2022-09-12T13:52:38;101076.72;;;29.67;69.87
61337;BME280;47212;41.326;2.104;2022-09-12T13:57:41;101072.75;;;29.72;69.30
61337;BME280;47212;41.326;2.104;2022-09-12T14:02:46;101081.13;;;29.68;69.09
61337;BME280;47212;41.326;2.104;2022-09-12T14:07:57;101072.59;;;29.58;69.61
61337;BME280;47212;41.326;2.104;2022-09-12T14:13:03;101074.94;;;29.52;69.61
61337;BME280;47212;41.326;2.104;2022-09-12T14:18:06;101074.09;;;29.48;70.07
61337;BME280;47212;41.326;2.104;2022-09-12T14:23:31;101059.13;;;29.40;71.37
61337;BME280;47212;41.326;2.104;2022-09-12T14:28:34;101056.31;;;29.40;71.10
61337;BME280;47212;41.326;2.104;2022-09-12T14:33:50;101047.53;;;29.42;71.21
61337;BME280;47212;41.326;2.104;2022-09-12T14:38:56;101049.19;;;29.43;70.51
61337;BME280;47212;41.326;2.104;2022-09-12T14:44:04;101052.28;;;29.38;70.66
61337;BME280;47212;41.326;2.104;2022-09-12T14:49:35;101058.28;;;29.36;70.91
61337;BME280;47212;41.326;2.104;2022-09-12T14:54:38;101052.97;;;29.28;71.16
61337;BME280;47212;41.326;2.104;2022-09-12T14:59:43;101042.47;;;29.21;70.82
61337;BME280;47212;41.326;2.104;2022-09-12T15:04:46;101032.75;;;29.11;70.84
61337;BME280;47212;41.326;2.104;2022-09-12T15:09:49;101028.34;;;29.10;70.98
61337;BME280;47212;41.326;2.104;2022-09-12T15:14:51;101026.28;;;29.07;71.29
61337;BME280;47212;41.326;2.104;2022-09-12T15:19:53;101015.81;;;29.01;71.75
61337;BME280;47212;41.326;2.104;2022-09-12T15:24:55;101015.03;;;29.04;71.46
61337;BME280;47212;41.326;2.104;2022-09-12T15:29:58;101015.06;;;29.07;71.75
61337;BME280;47212;41.326;2.104;2022-09-12T15:35:00;101015.50;;;29.09;71.62
61337;BME280;47212;41.326;2.104;2022-09-12T15:40:02;101004.63;;;29.04;71.75
61337;BME280;47212;41.326;2.104;2022-09-12T15:45:18;101009.38;;;29.00;72.38
61337;BME280;47212;41.326;2.104;2022-09-12T15:50:23;101001.75;;;28.97;71.97
61337;BME280;47212;41.326;2.104;2022-09-12T15:55:30;100996.09;;;28.94;72.05
61337;BME280;47212;41.326;2.104;2022-09-12T16:00:33;100992.53;;;28.97;71.98
61337;BME280;47212;41.326;2.104;2022-09-12T16:05:39;100988.59;;;29.01;72.07
61337;BME280;47212;41.326;2.104;2022-09-12T16:10:45;100988.66;;;29.08;72.13
61337;BME280;47212;41.326;2.104;2022-09-12T16:15:49;100995.50;;;29.11;72.26
61337;BME280;47212;41.326;2.104;2022-09-12T16:20:56;100985.09;;;29.11;71.63
61337;BME280;47212;41.326;2.104;2022-09-12T16:26:00;100986.28;;;29.10;71.99
61337;BME280;47212;41.326;2.104;2022-09-12T16:31:07;100991.84;;;29.07;71.62
61337;BME280;47212;41.326;2.104;2022-09-12T16:36:14;100972.56;;;29.02;71.67
61337;BME280;47212;41.326;2.104;2022-09-12T16:41:19;100975.81;;;29.04;71.24
61337;BME280;47212;41.326;2.104;2022-09-12T16:46:25;100977.78;;;29.03;71.91
61337;BME280;47212;41.326;2.104;2022-09-12T16:51:31;100974.56;;;29.01;72.01
61337;BME280;47212;41.326;2.104;2022-09-12T16:56:34;100976.84;;;28.92;72.30
61337;BME280;47212;41.326;2.104;2022-09-12T17:01:39;100977.25;;;28.91;72.40
61337;BME280;47212;41.326;2.104;2022-09-12T17:06:42;100965.56;;;28.85;72.60
61337;BME280;47212;41.326;2.104;2022-09-12T17:11:45;100965.88;;;28.80;72.66
61337;BME280;47212;41.326;2.104;2022-09-12T17:16:48;100964.59;;;28.74;72.61
61337;BME280;47212;41.326;2.104;2022-09-12T17:21:53;100959.75;;;28.71;72.86
61337;BME280;47212;41.326;2.104;2022-09-12T17:26:55;100952.09;;;28.68;72.53
61337;BME280;47212;41.326;2.104;2022-09-12T17:31:59;100941.63;;;28.61;71.93
61337;BME280;47212;41.326;2.104;2022-09-12T17:37:04;100948.66;;;28.51;71.67
61337;BME280;47212;41.326;2.104;2022-09-12T17:42:06;100951.00;;;28.46;72.03
61337;BME280;47212;41.326;2.104;2022-09-12T17:47:12;100956.53;;;28.42;71.43
61337;BME280;47212;41.326;2.104;2022-09-12T17:52:15;100941.69;;;28.38;71.50
61337;BME280;47212;41.326;2.104;2022-09-12T17:57:20;100946.41;;;28.34;71.41
61337;BME280;47212;41.326;2.104;2022-09-12T18:02:23;100954.81;;;28.34;71.56
61337;BME280;47212;41.326;2.104;2022-09-12T18:07:25;100958.81;;;28.33;71.10
61337;BME280;47212;41.326;2.104;2022-09-12T18:12:27;100953.22;;;28.33;71.13
61337;BME280;47212;41.326;2.104;2022-09-12T18:17:29;100961.19;;;28.31;70.59
61337;BME280;47212;41.326;2.104;2022-09-12T18:22:31;100949.53;;;28.29;70.29
61337;BME280;47212;41.326;2.104;2022-09-12T18:27:33;100955.53;;;28.28;70.94
61337;BME280;47212;41.326;2.104;2022-09-12T18:32:35;100961.13;;;28.28;71.03
61337;BME280;47212;41.326;2.104;2022-09-12T18:37:39;100973.50;;;28.27;70.95
61337;BME280;47212;41.326;2.104;2022-09-12T18:42:44;100983.50;;;28.28;70.73
61337;BME280;47212;41.326;2.104;2022-09-12T18:47:46;101005.91;;;28.28;70.84
61337;BME280;47212;41.326;2.104;2022-09-12T18:52:50;101015.53;;;28.30;70.72
61337;BME280;47212;41.326;2.104;2022-09-12T18:57:57;101029.53;;;28.30;70.23
61337;BME280;47212;41.326;2.104;2022-09-12T19:02:59;101040.31;;;28.28;70.34
61337;BME280;47212;41.326;2.104;2022-09-12T19:08:01;101045.03;;;28.24;70.78
61337;BME280;47212;41.326;2.104;2022-09-12T19:13:03;101057.41;;;28.23;70.93
61337;BME280;47212;41.326;2.104;2022-09-12T19:18:05;101061.75;;;28.20;70.55
61337;BME280;47212;41.326;2.104;2022-09-12T19:23:07;101078.53;;;28.20;70.62
61337;BME280;47212;41.326;2.104;2022-09-12T19:28:09;101072.94;;;28.20;70.73
61337;BME280;47212;41.326;2.104;2022-09-12T19:33:11;101074.56;;;28.21;70.52
61337;BME280;47212;41.326;2.104;2022-09-12T19:38:13;101081.78;;;28.22;70.95
61337;BME280;47212;41.326;2.104;2022-09-12T19:43:15;101086.56;;;28.22;70.71
61337;BME280;47212;41.326;2.104;2022-09-12T19:48:18;101082.63;;;28.23;70.62
61337;BME280;47212;41.326;2.104;2022-09-12T19:53:21;101080.25;;;28.25;70.61
61337;BME280;47212;41.326;2.104;2022-09-12T19:58:23;101090.63;;;28.25;70.85
61337;BME280;47212;41.326;2.104;2022-09-12T20:03:25;101090.63;;;28.25;70.88
61337;BME280;47212;41.326;2.104;2022-09-12T20:08:27;101089.03;;;28.23;70.97
61337;BME280;47212;41.326;2.104;2022-09-12T20:13:29;101091.34;;;28.21;71.32
61337;BME280;47212;41.326;2.104;2022-09-12T20:18:31;101096.16;;;28.21;71.66
61337;BME280;47212;41.326;2.104;2022-09-12T20:23:33;101094.53;;;28.20;71.58
61337;BME280;47212;41.326;2.104;2022-09-12T20:28:36;101094.53;;;28.20;72.09
61337;BME280;47212;41.326;2.104;2022-09-12T20:33:39;101083.34;;;28.20;71.98
61337;BME280;47212;41.326;2.104;2022-09-12T20:38:57;101082.53;;;28.19;72.24
61337;BME280;47212;41.326;2.104;2022-09-12T20:44:00;101094.09;;;28.18;72.30
61337;BME280;47212;41.326;2.104;2022-09-12T20:49:03;101086.50;;;28.18;72.30
61337;BME280;47212;41.326;2.104;2022-09-12T20:54:05;101094.09;;;28.18;72.47
61337;BME280;47212;41.326;2.104;2022-09-12T20:59:13;101090.13;;;28.19;72.37
61337;BME280;47212;41.326;2.104;2022-09-12T21:04:25;101080.09;;;28.18;72.25
61337;BME280;47212;41.326;2.104;2022-09-12T21:09:28;101071.31;;;28.19;71.72
61337;BME280;47212;41.326;2.104;2022-09-12T21:14:30;101074.94;;;28.20;71.86
61337;BME280;47212;41.326;2.104;2022-09-12T21:19:32;101087.31;;;28.19;71.97
61337;BME280;47212;41.326;2.104;2022-09-12T21:24:34;101092.09;;;28.18;72.14
61337;BME280;47212;41.326;2.104;2022-09-12T21:29:36;101100.06;;;28.16;71.85
61337;BME280;47212;41.326;2.104;2022-09-12T21:34:38;101094.84;;;28.15;72.49
61337;BME280;47212;41.326;2.104;2022-09-12T21:39:42;101092.03;;;28.15;72.26
61337;BME280;47212;41.326;2.104;2022-09-12T21:45:01;101086.44;;;28.15;72.63
61337;BME280;47212;41.326;2.104;2022-09-12T21:50:04;101106.41;;;28.13;72.57
61337;BME280;47212;41.326;2.104;2022-09-12T21:55:08;101123.13;;;28.10;72.41
61337;BME280;47212;41.326;2.104;2022-09-12T22:00:13;101130.09;;;27.97;70.91
61337;BME280;47212;41.326;2.104;2022-09-12T22:05:18;101149.09;;;27.87;70.98
61337;BME280;47212;41.326;2.104;2022-09-12T22:10:22;101131.75;;;27.78;71.02
61337;BME280;47212;41.326;2.104;2022-09-12T22:15:24;101136.78;;;27.73;71.21
61337;BME280;47212;41.326;2.104;2022-09-12T22:20:42;101147.53;;;27.71;71.65
61337;BME280;47212;41.326;2.104;2022-09-12T22:25:44;101129.16;;;27.70;71.46
61337;BME280;47212;41.326;2.104;2022-09-12T22:30:47;101121.56;;;27.70;71.81
61337;BME280;47212;41.326;2.104;2022-09-12T22:35:49;101121.13;;;27.68;71.47
61337;BME280;47212;41.326;2.104;2022-09-12T22:40:51;101123.47;;;27.66;71.52
61337;BME280;47212;41.326;2.104;2022-09-12T22:45:53;101102.66;;;27.64;71.39
61337;BME280;47212;41.326;2.104;2022-09-12T22:50:55;101097.88;;;27.64;71.16
61337;BME280;47212;41.326;2.104;2022-09-12T22:55:59;101084.31;;;27.66;71.11
61337;BME280;47212;41.326;2.104;2022-09-12T23:01:01;101076.38;;;27.68;70.47
61337;BME280;47212;41.326;2.104;2022-09-12T23:06:06;101094.34;;;27.67;70.21
61337;BME280;47212;41.326;2.104;2022-09-12T23:11:15;101091.09;;;27.65;69.78
61337;BME280;47212;41.326;2.104;2022-09-12T23:16:22;101097.06;;;27.64;68.99
61337;BME280;47212;41.326;2.104;2022-09-12T23:21:25;101080.72;;;27.66;68.83
61337;BME280;47212;41.326;2.104;2022-09-12T23:26:27;101056.00;;;27.68;68.34
61337;BME280;47212;41.326;2.104;2022-09-12T23:31:35;101063.63;;;27.71;68.07
61337;BME280;47212;41.326;2.104;2022-09-12T23:36:37;101057.22;;;27.70;68.20
61337;BME280;47212;41.326;2.104;2022-09-12T23:41:41;101041.63;;;27.69;68.20
61337;BME280;47212;41.326;2.104;2022-09-12T23:46:46;101033.56;;;27.64;67.69
61337;BME280;47212;41.326;2.104;2022-09-12T23:51:48;101007.03;;;27.58;67.91
61337;BME280;47212;41.326;2.104;2022-09-12T23:56:50;100987.03;;;27.56;68.32
